Time;durP1;ratioP1;P1;durP2;ratioP2;P2;SDS_P1;SDS_P2;PMS_P1;PMS_P2;Temp;Humidity;BMP_temperature;BMP_pressure;BME280_temperature;BME280_humidity;BME280_pressure;Samples;Min_cycle;Max_cycle;Signal;HPM_P1;HPM_P2
2021/10/03 00:00:39;;;;;;;4.10;3.70;;;14.90;99.90;;;;;;4992523;28;20457;-86
2021/10/03 00:03:24;;;;;;;4.95;3.10;;;14.90;99.90;;;;;;4969808;28;20423;-87
2021/10/03 00:06:08;;;;;;;4.63;3.70;;;14.90;99.90;;;;;;4959938;28;20400;-86
2021/10/03 00:08:53;;;;;;;3.63;3.33;;;14.80;99.90;;;;;;4961040;28;20415;-81
2021/10/03 00:11:37;;;;;;;5.60;3.58;;;14.80;99.90;;;;;;5003025;28;20425;-87
2021/10/03 00:14:22;;;;;;;3.60;3.30;;;14.80;99.90;;;;;;4980417;28;20408;-84
2021/10/03 00:17:06;;;;;;;3.90;3.50;;;14.80;99.90;;;;;;4992014;28;20934;-84
2021/10/03 00:19:51;;;;;;;4.10;3.70;;;14.80;99.90;;;;;;5013651;28;20404;-82
2021/10/03 00:22:35;;;;;;;4.22;3.80;;;14.80;99.90;;;;;;4983759;28;20488;-85
2021/10/03 00:25:20;;;;;;;4.10;3.38;;;14.80;99.90;;;;;;4972765;28;20404;-82
2021/10/03 00:28:06;;;;;;;5.53;3.73;;;14.70;99.90;;;;;;4986426;28;20412;-82
2021/10/03 00:30:50;;;;;;;3.60;3.30;;;14.70;99.90;;;;;;4991922;28;20387;-83
2021/10/03 00:33:35;;;;;;;5.03;3.88;;;14.70;99.90;;;;;;4970711;28;20497;-82
2021/10/03 00:36:20;;;;;;;3.42;3.10;;;14.70;99.90;;;;;;4999417;28;20423;-88
2021/10/03 00:39:04;;;;;;;4.05;3.65;;;14.70;99.90;;;;;;4997220;28;20464;-89
2021/10/03 00:41:48;;;;;;;5.25;3.45;;;14.60;99.90;;;;;;4999348;28;20414;-85
2021/10/03 00:44:33;;;;;;;3.70;3.40;;;14.60;99.90;;;;;;5001005;28;20396;-85
2021/10/03 00:47:17;;;;;;;3.70;3.40;;;14.60;99.90;;;;;;4991584;28;20485;-84
2021/10/03 00:50:02;;;;;;;3.80;3.50;;;14.60;99.90;;;;;;4978516;28;20419;-81
2021/10/03 00:52:47;;;;;;;4.00;3.67;;;14.60;99.90;;;;;;4976700;28;20394;-82
2021/10/03 00:55:31;;;;;;;3.85;3.45;;;14.50;99.90;;;;;;4999630;28;20399;-85
2021/10/03 00:58:15;;;;;;;3.78;3.38;;;14.50;99.90;;;;;;4974340;28;20451;-84
2021/10/03 01:01:01;;;;;;;6.50;3.78;;;14.50;99.90;;;;;;4972914;28;20504;-83
2021/10/03 01:03:45;;;;;;;4.93;3.78;;;14.40;99.90;;;;;;4985791;28;20492;-84
2021/10/03 01:06:30;;;;;;;4.10;3.70;;;14.40;99.90;;;;;;4993699;28;20447;-87
2021/10/03 01:09:14;;;;;;;5.45;3.88;;;14.40;99.90;;;;;;4965712;28;20393;-86
2021/10/03 01:11:58;;;;;;;3.83;3.30;;;14.40;99.90;;;;;;5006065;28;20990;-85
2021/10/03 01:14:43;;;;;;;3.88;3.50;;;14.40;99.90;;;;;;4975195;28;20404;-86
2021/10/03 01:17:27;;;;;;;6.18;3.58;;;14.40;99.90;;;;;;4999673;28;20541;-84
2021/10/03 01:20:11;;;;;;;4.30;3.90;;;14.30;99.90;;;;;;4976348;28;20407;-86
2021/10/03 01:22:56;;;;;;;4.40;4.00;;;14.30;99.90;;;;;;4999111;28;20391;-82
2021/10/03 01:25:47;;;;;;;5.75;3.88;;;14.40;99.90;;;;;;4991955;28;21045;-86
2021/10/03 01:28:31;;;;;;;5.28;3.75;;;14.40;99.90;;;;;;4982875;28;20411;-83
2021/10/03 01:31:16;;;;;;;4.53;4.13;;;14.30;99.90;;;;;;4993493;28;20468;-85
2021/10/03 01:34:00;;;;;;;4.32;3.92;;;14.30;99.90;;;;;;4988447;28;20400;-82
2021/10/03 01:36:45;;;;;;;4.30;3.90;;;14.30;99.90;;;;;;4981090;28;20410;-87
2021/10/03 01:39:29;;;;;;;4.33;3.70;;;14.30;99.90;;;;;;4988595;28;21290;-85
2021/10/03 01:42:13;;;;;;;4.18;3.70;;;14.20;99.90;;;;;;5002911;28;20503;-86
2021/10/03 01:44:58;;;;;;;4.70;4.30;;;14.20;99.90;;;;;;5005871;28;20419;-84
2021/10/03 01:48:17;;;;;;;5.95;4.10;;;14.20;99.90;;;;;;4982699;28;20400;-85
2021/10/03 01:51:06;;;;;;;4.97;4.57;;;14.20;99.90;;;;;;4997155;28;20447;-83
2021/10/03 01:53:54;;;;;;;5.18;4.68;;;14.10;99.90;;;;;;5004447;28;20417;-86
2021/10/03 01:56:40;;;;;;;4.20;3.80;;;14.10;99.90;;;;;;4981047;28;20578;-85
2021/10/03 01:59:24;;;;;;;4.50;4.10;;;14.10;99.90;;;;;;4995670;28;20972;-85
2021/10/03 02:02:09;;;;;;;4.78;4.38;;;14.10;99.90;;;;;;4985401;28;20484;-85
2021/10/03 02:04:56;;;;;;;4.32;3.92;;;14.10;99.90;;;;;;4978460;28;20424;-84
2021/10/03 02:07:40;;;;;;;5.13;3.95;;;14.10;99.90;;;;;;5008046;28;20447;-85
2021/10/03 02:10:26;;;;;;;4.22;3.83;;;14.10;99.90;;;;;;4982359;28;20422;-85
2021/10/03 02:13:10;;;;;;;4.38;3.97;;;14.10;99.90;;;;;;4998993;28;20440;-85
2021/10/03 02:15:55;;;;;;;5.00;4.40;;;14.10;99.90;;;;;;4961784;28;20420;-84
2021/10/03 02:18:39;;;;;;;4.37;4.00;;;14.00;99.90;;;;;;4972377;28;20400;-83
2021/10/03 02:21:24;;;;;;;5.30;4.47;;;14.00;99.90;;;;;;5006577;28;20772;-85
2021/10/03 02:24:10;;;;;;;4.45;4.05;;;14.00;99.90;;;;;;4986542;28;20423;-83
2021/10/03 02:26:54;;;;;;;5.18;4.43;;;14.00;99.90;;;;;;4977957;28;20421;-86
2021/10/03 02:29:38;;;;;;;5.28;4.70;;;14.00;99.90;;;;;;4994117;28;20419;-83
2021/10/03 02:32:23;;;;;;;5.13;4.60;;;13.90;99.90;;;;;;4976060;28;20860;-84
2021/10/03 02:35:08;;;;;;;4.43;4.03;;;13.90;99.90;;;;;;4981370;28;20499;-82
2021/10/03 02:37:53;;;;;;;5.10;4.60;;;13.90;99.90;;;;;;4972660;28;20800;-86
2021/10/03 02:40:37;;;;;;;5.90;5.13;;;14.00;99.90;;;;;;4969936;28;20439;-82
2021/10/03 02:43:24;;;;;;;4.57;4.18;;;14.00;99.90;;;;;;4979340;28;20479;-84
2021/10/03 02:46:08;;;;;;;4.50;4.10;;;13.90;99.90;;;;;;4991574;28;20455;-83
2021/10/03 02:48:53;;;;;;;5.57;5.07;;;13.90;99.90;;;;;;4988554;28;20435;-86
2021/10/03 02:51:37;;;;;;;4.40;4.00;;;13.90;99.90;;;;;;4969692;28;20415;-82
2021/10/03 02:54:21;;;;;;;3.63;3.33;;;13.90;99.90;;;;;;4986793;28;20480;-81
2021/10/03 02:57:07;;;;;;;5.20;4.47;;;13.80;99.90;;;;;;4994462;28;20407;-84
2021/10/03 02:59:51;;;;;;;4.78;4.28;;;13.80;99.90;;;;;;4976853;28;20474;-86
2021/10/03 03:02:37;;;;;;;4.72;4.10;;;13.80;99.90;;;;;;5015508;28;20404;-85
2021/10/03 03:05:21;;;;;;;4.37;4.00;;;13.80;99.90;;;;;;4983982;28;20415;-82
2021/10/03 03:08:05;;;;;;;4.30;3.90;;;13.80;99.90;;;;;;5025652;28;20408;-84
2021/10/03 03:10:49;;;;;;;4.68;4.28;;;13.70;99.90;;;;;;4996470;28;20410;-89
2021/10/03 03:13:33;;;;;;;6.03;4.97;;;13.70;99.90;;;;;;5024309;28;20399;-84
2021/10/03 03:16:18;;;;;;;5.18;4.35;;;13.70;99.90;;;;;;4991501;28;21589;-84
2021/10/03 03:19:02;;;;;;;6.25;4.13;;;13.80;99.90;;;;;;4974645;28;20451;-86
2021/10/03 03:21:46;;;;;;;5.10;4.63;;;13.70;99.90;;;;;;4985336;28;20388;-83
2021/10/03 03:24:30;;;;;;;5.95;4.28;;;13.70;99.90;;;;;;4987755;28;20406;-84
2021/10/03 03:27:15;;;;;;;4.80;4.32;;;13.60;99.90;;;;;;5001101;28;20403;-87
2021/10/03 03:29:59;;;;;;;5.10;4.10;;;13.60;99.90;;;;;;4984073;28;20392;-85
2021/10/03 03:32:43;;;;;;;4.40;4.00;;;13.50;99.90;;;;;;4972485;28;20388;-84
2021/10/03 03:35:28;;;;;;;4.97;4.23;;;13.60;99.90;;;;;;4990532;28;20451;-83
2021/10/03 03:38:12;;;;;;;4.50;4.10;;;13.60;99.90;;;;;;5001667;28;20450;-89
2021/10/03 03:40:56;;;;;;;3.80;3.50;;;13.60;99.90;;;;;;4986578;28;20395;-83
2021/10/03 03:43:42;;;;;;;4.77;4.27;;;13.50;99.90;;;;;;4966089;28;20471;-87
2021/10/03 03:46:26;;;;;;;4.43;4.03;;;13.50;99.90;;;;;;4977155;28;20388;-83
2021/10/03 03:49:10;;;;;;;4.53;4.05;;;13.50;99.90;;;;;;4976016;28;20595;-84
2021/10/03 03:51:55;;;;;;;7.63;4.30;;;13.50;99.90;;;;;;4998459;28;20387;-85
2021/10/03 03:54:39;;;;;;;4.50;4.10;;;13.50;99.90;;;;;;4973639;28;20775;-82
2021/10/03 03:57:23;;;;;;;3.88;3.50;;;13.50;99.90;;;;;;4964971;28;21200;-85
2021/10/03 04:00:09;;;;;;;7.22;4.28;;;13.50;99.90;;;;;;4969506;28;20443;-82
2021/10/03 04:02:53;;;;;;;4.68;4.28;;;13.60;99.90;;;;;;5017138;28;20411;-84
2021/10/03 04:05:37;;;;;;;4.30;3.90;;;13.70;99.90;;;;;;4994918;28;20421;-85
2021/10/03 04:08:23;;;;;;;5.00;4.55;;;13.70;99.90;;;;;;4984247;28;20399;-86
2021/10/03 04:11:08;;;;;;;4.55;4.15;;;13.70;99.90;;;;;;4996983;28;20392;-85
2021/10/03 04:13:52;;;;;;;4.18;3.60;;;13.70;99.90;;;;;;4975919;28;20413;-84
2021/10/03 04:16:36;;;;;;;6.18;4.43;;;13.70;99.90;;;;;;4982337;28;20444;-84
2021/10/03 04:19:21;;;;;;;4.80;4.07;;;13.80;99.90;;;;;;4995695;28;20431;-87
2021/10/03 04:22:05;;;;;;;5.95;4.15;;;13.80;99.90;;;;;;4999807;28;20981;-87
2021/10/03 04:24:49;;;;;;;5.85;4.55;;;13.80;99.90;;;;;;5005237;28;20408;-91
2021/10/03 04:27:34;;;;;;;4.70;4.18;;;13.90;99.90;;;;;;4983360;28;20435;-89
2021/10/03 04:30:18;;;;;;;4.37;3.53;;;13.90;99.90;;;;;;4980597;28;20419;-85
2021/10/03 04:33:02;;;;;;;4.30;3.90;;;14.00;99.90;;;;;;5001330;28;20403;-85
2021/10/03 04:35:47;;;;;;;4.37;3.80;;;14.00;99.90;;;;;;4996317;28;20447;-85
2021/10/03 04:38:31;;;;;;;4.80;4.40;;;14.00;99.90;;;;;;4996781;28;20431;-85
2021/10/03 04:41:15;;;;;;;5.88;4.13;;;14.00;99.90;;;;;;4975995;28;20420;-87
2021/10/03 04:44:00;;;;;;;4.25;3.85;;;14.00;99.90;;;;;;4981237;28;20750;-89
2021/10/03 04:46:44;;;;;;;5.68;4.50;;;14.00;99.90;;;;;;4991672;28;20412;-85
2021/10/03 04:49:29;;;;;;;5.10;4.60;;;14.00;99.90;;;;;;4977245;28;20411;-87
2021/10/03 04:52:13;;;;;;;7.60;4.20;;;14.00;99.90;;;;;;4986244;28;20434;-85
2021/10/03 04:54:57;;;;;;;5.10;4.47;;;14.10;99.90;;;;;;4959948;28;20443;-81
2021/10/03 04:57:42;;;;;;;4.33;3.93;;;14.10;99.90;;;;;;4999276;28;20464;-84
2021/10/03 05:00:26;;;;;;;4.50;3.70;;;14.10;99.90;;;;;;4985050;28;20396;-82
2021/10/03 05:03:10;;;;;;;5.95;3.72;;;14.00;99.90;;;;;;4975103;28;21010;-84
2021/10/03 05:05:55;;;;;;;4.15;3.85;;;14.00;99.90;;;;;;4983258;28;20464;-81
2021/10/03 05:08:39;;;;;;;4.97;4.47;;;14.00;99.90;;;;;;4995968;28;20987;-83
2021/10/03 05:11:23;;;;;;;4.70;4.30;;;14.00;99.90;;;;;;5013617;28;20407;-85
2021/10/03 05:14:08;;;;;;;4.65;4.25;;;13.90;99.90;;;;;;4965523;28;20451;-86
2021/10/03 05:16:52;;;;;;;4.28;3.88;;;13.90;99.90;;;;;;4993216;28;20415;-86
2021/10/03 05:19:36;;;;;;;7.05;4.32;;;13.90;99.90;;;;;;4982229;28;20442;-87
2021/10/03 05:22:22;;;;;;;4.03;3.72;;;14.00;99.90;;;;;;5004394;28;20392;-90
2021/10/03 05:25:08;;;;;;;4.38;3.97;;;13.90;99.90;;;;;;4990890;28;20396;-81
2021/10/03 05:27:52;;;;;;;4.75;4.28;;;13.90;99.90;;;;;;4958011;28;20399;-81
2021/10/03 05:30:36;;;;;;;4.50;4.10;;;13.90;99.90;;;;;;4980036;28;20398;-82
2021/10/03 05:33:21;;;;;;;4.45;4.05;;;13.80;99.90;;;;;;4991850;28;20427;-83
2021/10/03 05:36:05;;;;;;;4.38;3.85;;;13.80;99.90;;;;;;4956088;28;20424;-81
2021/10/03 05:38:50;;;;;;;3.97;3.63;;;13.80;99.90;;;;;;4965217;28;20794;-82
2021/10/03 05:41:34;;;;;;;4.45;3.70;;;13.80;99.90;;;;;;4997584;28;20396;-87
2021/10/03 05:44:19;;;;;;;4.13;3.83;;;13.80;99.90;;;;;;4971191;28;20431;-83
2021/10/03 05:47:03;;;;;;;4.70;4.20;;;13.80;99.90;;;;;;4986323;28;20401;-82
2021/10/03 05:49:48;;;;;;;5.78;4.75;;;13.90;99.90;;;;;;4983557;28;20452;-86
2021/10/03 05:52:32;;;;;;;4.15;3.75;;;13.90;99.90;;;;;;4984801;28;20463;-86
2021/10/03 05:55:17;;;;;;;6.18;4.40;;;13.90;99.90;;;;;;4998521;28;20427;-84
2021/10/03 05:58:01;;;;;;;5.38;4.40;;;13.90;99.90;;;;;;5012345;28;20465;-85
2021/10/03 06:00:45;;;;;;;4.53;4.13;;;14.00;99.90;;;;;;4962467;28;20405;-84
2021/10/03 06:03:29;;;;;;;4.55;4.10;;;14.00;99.90;;;;;;4976469;28;20444;-87
2021/10/03 06:06:13;;;;;;;4.85;4.35;;;14.10;99.90;;;;;;5008326;28;20479;-82
2021/10/03 06:08:58;;;;;;;3.85;3.55;;;14.10;99.90;;;;;;4991384;28;20960;-82
2021/10/03 06:11:42;;;;;;;4.15;3.75;;;14.10;99.90;;;;;;4975009;28;20449;-87
2021/10/03 06:14:26;;;;;;;4.93;4.45;;;14.10;99.90;;;;;;4966113;28;20403;-82
2021/10/03 06:17:10;;;;;;;4.67;4.27;;;14.20;99.90;;;;;;5006195;28;20432;-84
2021/10/03 06:19:55;;;;;;;5.30;4.82;;;14.20;99.90;;;;;;4990587;28;20437;-83
2021/10/03 06:22:46;;;;;;;4.45;4.05;;;14.20;99.90;;;;;;4982802;28;20404;-84
2021/10/03 06:25:31;;;;;;;4.75;4.28;;;14.40;99.90;;;;;;5011207;28;20436;-84
2021/10/03 06:28:15;;;;;;;4.53;4.10;;;14.30;99.90;;;;;;4981612;28;20464;-82
2021/10/03 06:30:59;;;;;;;4.53;4.10;;;14.40;99.90;;;;;;4971528;28;21748;-82
2021/10/03 06:33:43;;;;;;;5.05;4.10;;;14.40;99.90;;;;;;5002597;28;20416;-84
2021/10/03 06:36:27;;;;;;;5.53;4.50;;;14.50;99.90;;;;;;4999540;28;20419;-84
2021/10/03 06:39:12;;;;;;;4.40;4.00;;;14.60;99.90;;;;;;4968375;28;21197;-82
2021/10/03 06:41:57;;;;;;;4.10;3.80;;;14.60;99.90;;;;;;4975770;28;20471;-82
2021/10/03 06:44:41;;;;;;;4.38;3.83;;;14.60;99.90;;;;;;4977936;28;20425;-81
2021/10/03 06:47:25;;;;;;;4.00;3.70;;;14.70;99.90;;;;;;4967966;28;20443;-83
2021/10/03 06:50:10;;;;;;;4.28;3.88;;;14.70;99.90;;;;;;4951095;28;20381;-84
2021/10/03 06:52:55;;;;;;;5.05;4.57;;;14.80;99.90;;;;;;4979757;28;20405;-87
2021/10/03 06:55:39;;;;;;;5.30;4.80;;;14.80;99.90;;;;;;5008927;28;20404;-84
2021/10/03 06:58:23;;;;;;;4.38;3.95;;;14.90;99.90;;;;;;4994954;28;20426;-84
2021/10/03 07:01:07;;;;;;;4.60;4.20;;;14.90;99.90;;;;;;4979549;28;20913;-82
2021/10/03 07:03:52;;;;;;;4.28;3.92;;;15.00;99.90;;;;;;4993507;28;20462;-82
2021/10/03 07:06:36;;;;;;;4.00;3.60;;;15.00;99.90;;;;;;4985168;28;20410;-83
2021/10/03 07:09:21;;;;;;;5.30;4.60;;;15.00;99.90;;;;;;5011046;28;20801;-83
2021/10/03 07:12:05;;;;;;;4.80;4.30;;;15.00;99.90;;;;;;4972681;28;20380;-84
2021/10/03 07:14:50;;;;;;;4.00;3.50;;;15.10;99.90;;;;;;5010452;28;20468;-82
2021/10/03 07:17:34;;;;;;;4.68;4.28;;;15.10;99.90;;;;;;4986074;28;20431;-89
2021/10/03 07:20:19;;;;;;;4.07;3.67;;;15.20;99.90;;;;;;4994286;28;20388;-83
2021/10/03 07:23:03;;;;;;;4.93;3.95;;;15.30;99.90;;;;;;4999459;28;20770;-84
2021/10/03 07:25:47;;;;;;;4.80;4.25;;;15.30;99.90;;;;;;4990232;28;20453;-85
2021/10/03 07:28:32;;;;;;;4.60;4.20;;;15.40;99.90;;;;;;5011960;28;20392;-82
2021/10/03 07:31:19;;;;;;;4.43;4.00;;;15.50;99.90;;;;;;4997997;28;20883;-82
2021/10/03 07:34:03;;;;;;;5.28;4.22;;;15.50;99.90;;;;;;4989250;28;20392;-87
2021/10/03 07:36:47;;;;;;;3.97;3.65;;;15.60;99.90;;;;;;4972919;28;20445;-88
2021/10/03 07:39:32;;;;;;;4.35;3.95;;;15.70;99.90;;;;;;4989927;28;20550;-85
2021/10/03 07:42:16;;;;;;;4.57;4.15;;;15.80;99.90;;;;;;5003440;28;20432;-87
2021/10/03 07:45:00;;;;;;;3.55;3.25;;;15.90;99.90;;;;;;4997420;28;20411;-84
2021/10/03 07:47:47;;;;;;;5.75;4.38;;;16.00;99.90;;;;;;4978999;28;20430;-83
2021/10/03 07:50:31;;;;;;;4.00;3.70;;;16.10;99.90;;;;;;4990413;28;20465;-84
2021/10/03 07:53:16;;;;;;;4.20;3.90;;;16.30;99.90;;;;;;4987678;28;20407;-87
2021/10/03 07:56:00;;;;;;;4.22;3.83;;;16.30;99.90;;;;;;4966086;28;20415;-85
2021/10/03 07:58:45;;;;;;;4.30;3.90;;;16.40;99.90;;;;;;4970122;28;20443;-87
2021/10/03 08:01:29;;;;;;;4.20;3.88;;;16.40;99.90;;;;;;4986797;28;20417;-84
2021/10/03 08:04:13;;;;;;;4.07;3.67;;;16.50;99.90;;;;;;5003190;28;20476;-85
2021/10/03 08:06:57;;;;;;;5.07;4.55;;;16.70;99.90;;;;;;4997926;28;20423;-89
2021/10/03 08:09:42;;;;;;;4.38;3.90;;;16.80;99.90;;;;;;4989920;28;20410;-86
2021/10/03 08:12:28;;;;;;;4.10;3.70;;;16.80;99.90;;;;;;4989479;28;20432;-83
2021/10/03 08:15:13;;;;;;;5.23;3.70;;;16.90;99.90;;;;;;4986332;28;20392;-83
2021/10/03 08:17:57;;;;;;;4.28;3.75;;;17.00;99.90;;;;;;4971602;28;20442;-80
2021/10/03 08:20:42;;;;;;;5.45;4.28;;;17.00;99.90;;;;;;4991673;28;20416;-82
2021/10/03 08:23:26;;;;;;;4.22;3.83;;;17.10;99.90;;;;;;5004470;28;20751;-85
2021/10/03 08:26:12;;;;;;;4.28;3.90;;;17.10;99.90;;;;;;4976334;28;20428;-87
2021/10/03 08:28:56;;;;;;;4.10;3.70;;;17.20;99.90;;;;;;4971940;28;20503;-84
2021/10/03 08:31:40;;;;;;;4.75;4.28;;;17.20;99.90;;;;;;4961726;28;20452;-89
2021/10/03 08:34:25;;;;;;;4.20;3.80;;;17.30;99.90;;;;;;4977040;28;20408;-87
2021/10/03 08:37:09;;;;;;;3.85;3.55;;;17.30;99.90;;;;;;4995402;28;21104;-88
2021/10/03 08:39:54;;;;;;;4.10;3.70;;;17.50;99.90;;;;;;4988542;28;20412;-85
2021/10/03 08:42:38;;;;;;;3.70;3.40;;;17.60;99.90;;;;;;4994696;28;20459;-88
2021/10/03 08:45:22;;;;;;;4.45;3.63;;;17.80;99.90;;;;;;4980426;28;21017;-86
2021/10/03 08:48:07;;;;;;;3.88;3.58;;;17.80;99.90;;;;;;4983878;28;20421;-87
2021/10/03 08:50:51;;;;;;;4.28;3.67;;;17.90;99.90;;;;;;4967065;28;20405;-84
2021/10/03 08:53:35;;;;;;;3.20;2.88;;;17.90;99.90;;;;;;4984717;28;20415;-89
2021/10/03 08:56:21;;;;;;;4.72;3.40;;;18.10;99.90;;;;;;4974983;28;20443;-87
2021/10/03 08:59:06;;;;;;;3.70;3.30;;;18.10;99.90;;;;;;4973289;28;20481;-85
2021/10/03 09:01:56;;;;;;;3.92;3.63;;;18.20;99.90;;;;;;4974294;28;20396;-89
2021/10/03 09:04:43;;;;;;;4.10;3.67;;;18.30;99.90;;;;;;5006566;28;20400;-83
2021/10/03 09:07:27;;;;;;;4.40;3.80;;;18.40;99.90;;;;;;4980070;28;20431;-90
2021/10/03 09:10:12;;;;;;;3.55;3.22;;;18.50;99.90;;;;;;4972769;28;20777;-85
2021/10/03 09:12:57;;;;;;;4.38;3.83;;;18.60;99.90;;;;;;5010898;28;20395;-88
2021/10/03 09:15:42;;;;;;;4.45;3.72;;;18.70;99.90;;;;;;4981983;28;20391;-83
2021/10/03 09:18:44;;;;;;;3.38;3.08;;;18.80;99.90;;;;;;4997382;28;20439;-90
2021/10/03 09:21:28;;;;;;;3.63;3.33;;;18.80;99.90;;;;;;5005112;28;20417;-91
2021/10/03 09:24:14;;;;;;;3.63;3.00;;;18.90;99.90;;;;;;5008314;28;20408;-90
2021/10/03 09:27:01;;;;;;;3.70;3.40;;;19.00;99.90;;;;;;4992977;28;20445;-91
2021/10/03 09:29:46;;;;;;;3.87;3.53;;;19.10;99.90;;;;;;4995036;28;20398;-84
2021/10/03 09:32:30;;;;;;;3.67;3.38;;;19.20;99.90;;;;;;4995684;28;20428;-85
2021/10/03 09:35:14;;;;;;;3.37;3.07;;;19.30;99.90;;;;;;4984319;28;20387;-87
2021/10/03 09:38:09;;;;;;;3.67;3.35;;;19.40;99.90;;;;;;4962878;28;20408;-85
2021/10/03 09:41:01;;;;;;;6.70;3.10;;;19.50;99.90;;;;;;4993956;28;20415;-91
2021/10/03 09:43:53;;;;;;;4.65;2.85;;;19.80;99.90;;;;;;4975484;28;20943;-87
2021/10/03 09:46:40;;;;;;;4.00;3.60;;;20.00;99.90;;;;;;4974082;28;20725;-88
2021/10/03 09:49:24;;;;;;;7.40;3.33;;;20.20;99.90;;;;;;4983921;28;20421;-89
2021/10/03 09:52:09;;;;;;;3.70;3.40;;;20.40;99.90;;;;;;5021065;28;20465;-89
2021/10/03 09:54:53;;;;;;;3.40;3.10;;;20.50;99.90;;;;;;4974704;28;20783;-88
2021/10/03 09:57:38;;;;;;;4.85;3.08;;;20.60;99.90;;;;;;4996406;28;20428;-88
2021/10/03 10:00:25;;;;;;;3.30;3.03;;;20.60;99.90;;;;;;4971309;28;20412;-87
2021/10/03 10:03:12;;;;;;;4.68;3.40;;;20.70;99.90;;;;;;4973471;28;20481;-87
2021/10/03 10:05:57;;;;;;;4.75;3.92;;;20.70;99.90;;;;;;4972802;28;20404;-83
2021/10/03 10:08:41;;;;;;;5.00;3.65;;;20.70;99.90;;;;;;5014221;28;20404;-85
2021/10/03 10:11:31;;;;;;;3.55;3.17;;;20.80;99.90;;;;;;4990616;28;20404;-88
2021/10/03 10:14:16;;;;;;;3.40;3.08;;;20.90;99.90;;;;;;4985408;28;20392;-87
2021/10/03 10:17:17;;;;;;;3.10;2.90;;;20.80;99.90;;;;;;5016725;28;20792;-84
2021/10/03 10:20:24;;;;;;;3.58;3.28;;;20.90;99.90;;;;;;4973358;28;20852;-85
2021/10/03 10:23:10;;;;;;;3.40;3.10;;;21.00;99.90;;;;;;4989121;28;20432;-84
2021/10/03 10:25:56;;;;;;;3.47;3.20;;;21.20;99.90;;;;;;4992475;28;20412;-84
2021/10/03 10:28:40;;;;;;;3.47;3.17;;;21.30;99.90;;;;;;4962262;28;20462;-89
2021/10/03 10:31:25;;;;;;;3.55;3.25;;;21.30;99.90;;;;;;4983913;28;20935;-89
2021/10/03 10:34:09;;;;;;;3.58;3.13;;;21.50;99.90;;;;;;4978908;28;20412;-87
2021/10/03 10:36:53;;;;;;;3.67;3.20;;;21.60;99.90;;;;;;4983135;28;20408;-88
2021/10/03 10:39:38;;;;;;;3.83;3.42;;;21.80;99.90;;;;;;4969766;28;20434;-87
2021/10/03 10:42:24;;;;;;;3.55;3.25;;;22.10;99.90;;;;;;4987144;28;20453;-86
2021/10/03 10:45:33;;;;;;;3.30;3.00;;;22.20;99.90;;;;;;4960958;28;20426;-88
2021/10/03 10:48:18;;;;;;;3.53;2.92;;;22.60;99.90;;;;;;4997478;28;20906;-86
2021/10/03 10:51:11;;;;;;;3.50;3.20;;;22.70;99.90;;;;;;4998920;28;21128;-85
2021/10/03 10:54:12;;;;;;;3.40;3.10;;;22.90;99.90;;;;;;5009317;28;20412;-86
2021/10/03 10:57:08;;;;;;;4.28;3.55;;;22.90;99.90;;;;;;4977987;28;20503;-86
2021/10/03 11:00:20;;;;;;;2.88;2.67;;;22.90;99.90;;;;;;4981264;28;20786;-84
2021/10/03 11:03:05;;;;;;;3.50;3.20;;;22.90;99.90;;;;;;4982926;28;20436;-87
2021/10/03 11:05:49;;;;;;;3.28;2.97;;;22.90;99.90;;;;;;4980480;28;20455;-85
2021/10/03 11:08:55;;;;;;;3.05;2.83;;;22.90;99.90;;;;;;4997325;28;20983;-85
2021/10/03 11:11:52;;;;;;;3.22;2.92;;;23.00;99.90;;;;;;4976852;28;20433;-84
2021/10/03 11:14:37;;;;;;;2.80;2.60;;;23.10;99.90;;;;;;4991572;28;20408;-84
2021/10/03 11:17:22;;;;;;;3.38;3.08;;;23.40;99.90;;;;;;4967659;28;20441;-84
2021/10/03 11:20:07;;;;;;;3.03;2.83;;;23.70;99.90;;;;;;4981697;28;20503;-87
2021/10/03 11:22:51;;;;;;;3.30;2.55;;;24.10;99.90;;;;;;4982548;28;20400;-84
2021/10/03 11:25:36;;;;;;;2.45;2.25;;;24.20;99.90;;;;;;4972885;28;20444;-86
2021/10/03 11:28:20;;;;;;;2.97;2.67;;;24.20;99.90;;;;;;4982895;28;20404;-83
2021/10/03 11:31:05;;;;;;;3.47;2.75;;;24.40;99.90;;;;;;4980212;28;20428;-86
2021/10/03 11:33:49;;;;;;;4.50;2.95;;;24.40;99.90;;;;;;4969110;28;20607;-82
2021/10/03 11:36:47;;;;;;;3.70;2.85;;;24.30;99.90;;;;;;4969102;28;20440;-85
2021/10/03 11:39:56;;;;;;;3.25;2.95;;;24.50;99.90;;;;;;4967346;28;20447;-85
2021/10/03 11:42:59;;;;;;;3.08;2.80;;;24.50;99.90;;;;;;4982405;28;20489;-89
2021/10/03 11:45:43;;;;;;;3.70;2.75;;;24.90;99.90;;;;;;4971883;28;20447;-87
2021/10/03 11:48:28;;;;;;;3.20;2.73;;;25.20;99.90;;;;;;4958810;28;20412;-89
2021/10/03 11:51:12;;;;;;;3.20;2.90;;;25.10;99.90;;;;;;4974680;28;20412;-89
2021/10/03 11:53:57;;;;;;;3.28;2.97;;;25.10;99.90;;;;;;4999776;28;20759;-90
2021/10/03 11:56:41;;;;;;;2.65;2.45;;;25.30;99.90;;;;;;4987578;28;20461;-89
2021/10/03 11:59:26;;;;;;;2.67;2.47;;;25.50;99.90;;;;;;4960774;28;20423;-88
2021/10/03 12:02:16;;;;;;;2.90;2.60;;;25.60;99.60;;;;;;4963935;28;20427;-88
2021/10/03 12:05:00;;;;;;;3.05;2.83;;;25.50;98.60;;;;;;4984914;28;20452;-87
2021/10/03 12:07:45;;;;;;;3.10;2.80;;;25.60;98.20;;;;;;4963455;28;20673;-90
2021/10/03 12:10:50;;;;;;;2.58;2.38;;;25.90;98.80;;;;;;4994505;28;20402;-87
2021/10/03 12:13:35;;;;;;;2.97;2.67;;;25.80;98.30;;;;;;4982207;28;20389;-88
2021/10/03 12:16:19;;;;;;;2.70;2.50;;;25.60;98.80;;;;;;4981867;28;20418;-87
2021/10/03 12:19:04;;;;;;;3.57;2.43;;;25.70;98.60;;;;;;4983408;28;20932;-85
2021/10/03 12:21:49;;;;;;;2.70;2.50;;;25.50;97.60;;;;;;4989864;28;20424;-88
2021/10/03 12:24:33;;;;;;;2.60;2.40;;;25.20;98.40;;;;;;4972640;28;20393;-89
2021/10/03 12:27:24;;;;;;;2.90;2.53;;;25.10;97.40;;;;;;4971369;28;20418;-88
2021/10/03 12:30:10;;;;;;;2.83;2.63;;;25.30;98.10;;;;;;4969108;28;20461;-87
2021/10/03 12:32:59;;;;;;;2.75;2.50;;;25.10;97.80;;;;;;4968829;28;20399;-91
2021/10/03 12:36:03;;;;;;;2.75;2.55;;;24.90;97.40;;;;;;4969693;28;20477;-85
2021/10/03 12:38:48;;;;;;;2.60;2.40;;;24.80;98.00;;;;;;4972085;28;20453;-87
2021/10/03 12:41:32;;;;;;;2.80;2.60;;;24.70;97.40;;;;;;4987399;28;20399;-84
2021/10/03 12:44:17;;;;;;;2.90;2.70;;;24.60;97.10;;;;;;4969720;28;20390;-88
2021/10/03 12:47:05;;;;;;;4.40;2.50;;;24.40;96.90;;;;;;4956093;28;20430;-85
2021/10/03 12:49:50;;;;;;;2.78;2.58;;;24.30;98.00;;;;;;4980982;28;20979;-84
2021/10/03 12:52:34;;;;;;;3.33;2.55;;;24.30;97.20;;;;;;4961036;28;20443;-86
2021/10/03 12:55:19;;;;;;;3.10;2.80;;;24.40;97.80;;;;;;4973413;28;20468;-86
2021/10/03 12:58:04;;;;;;;3.17;2.43;;;24.60;97.80;;;;;;4982506;28;21141;-88
2021/10/03 13:00:48;;;;;;;2.53;2.33;;;24.70;97.20;;;;;;4979035;28;20411;-89
2021/10/03 13:03:34;;;;;;;2.73;2.37;;;24.70;97.00;;;;;;4978928;28;20396;-90
2021/10/03 13:06:18;;;;;;;2.97;2.40;;;24.40;96.90;;;;;;4961471;28;20404;-89
2021/10/03 13:09:02;;;;;;;3.20;2.60;;;24.20;97.70;;;;;;4968757;28;20495;-88
2021/10/03 13:11:47;;;;;;;2.20;2.00;;;24.10;98.20;;;;;;4984968;28;20484;-83
2021/10/03 13:14:31;;;;;;;4.00;2.55;;;24.10;98.50;;;;;;4974075;28;20408;-86
2021/10/03 13:17:16;;;;;;;2.75;2.55;;;24.00;99.20;;;;;;4964695;28;20432;-87
2021/10/03 13:20:00;;;;;;;2.67;2.47;;;23.90;98.10;;;;;;4956562;28;20395;-85
2021/10/03 13:22:44;;;;;;;3.38;2.80;;;23.80;98.10;;;;;;4958962;28;20474;-84
2021/10/03 13:25:28;;;;;;;2.80;2.60;;;23.70;98.80;;;;;;4986762;28;20857;-87
2021/10/03 13:28:13;;;;;;;2.57;2.37;;;23.60;98.60;;;;;;4973422;28;20491;-89
2021/10/03 13:30:58;;;;;;;2.70;2.50;;;23.60;99.00;;;;;;4959462;28;20935;-84
2021/10/03 13:33:42;;;;;;;2.70;2.47;;;23.60;98.70;;;;;;4985895;28;20427;-87
2021/10/03 13:36:26;;;;;;;2.28;2.08;;;23.70;98.80;;;;;;4986637;28;20404;-83
2021/10/03 13:39:11;;;;;;;3.20;2.90;;;23.60;98.60;;;;;;4971680;28;20400;-87
2021/10/03 13:41:55;;;;;;;2.30;2.10;;;23.60;97.90;;;;;;4976708;28;20401;-88
2021/10/03 13:44:40;;;;;;;2.60;2.40;;;23.50;99.00;;;;;;4974453;28;20406;-88
2021/10/03 13:47:24;;;;;;;2.72;2.53;;;23.60;98.40;;;;;;4963453;28;20416;-85
2021/10/03 13:50:10;;;;;;;2.57;2.37;;;23.60;98.90;;;;;;4972482;28;20416;-88
2021/10/03 13:52:55;;;;;;;2.72;2.53;;;23.50;98.80;;;;;;4974861;28;20425;-86
2021/10/03 13:55:40;;;;;;;3.92;3.33;;;23.30;98.80;;;;;;4971534;28;20403;-85
2021/10/03 13:58:24;;;;;;;2.40;2.20;;;23.20;98.40;;;;;;4974252;28;20428;-86
2021/10/03 14:01:08;;;;;;;2.80;2.60;;;23.10;98.50;;;;;;4972508;28;20457;-91
2021/10/03 14:03:53;;;;;;;3.07;2.67;;;22.90;98.60;;;;;;4959188;28;20396;-87
2021/10/03 14:06:37;;;;;;;2.80;2.50;;;22.90;98.70;;;;;;4959280;28;20416;-83
2021/10/03 14:09:21;;;;;;;2.50;2.30;;;22.80;99.50;;;;;;4959672;28;20405;-84
2021/10/03 14:12:06;;;;;;;2.42;2.20;;;22.70;99.30;;;;;;4986526;28;20417;-89
2021/10/03 14:14:52;;;;;;;2.97;2.78;;;22.70;99.90;;;;;;4986945;28;20421;-90
2021/10/03 14:17:38;;;;;;;2.35;2.15;;;22.50;99.80;;;;;;4975285;28;20402;-87
2021/10/03 14:20:23;;;;;;;2.60;2.40;;;22.60;99.90;;;;;;4981024;28;20425;-84
2021/10/03 14:23:08;;;;;;;3.15;2.67;;;22.60;99.90;;;;;;4963848;28;20397;-87